Time;durP1;ratioP1;P1;durP2;ratioP2;P2;SDS_P1;SDS_P2;PMS_P1;PMS_P2;Temp;Humidity;BMP_temperature;BMP_pressure;BME280_temperature;BME280_humidity;BME280_pressure;Samples;Min_cycle;Max_cycle;Signal;HPM_P1;HPM_P2
2023/01/13 00:00:05;;;;;;;;;;;;;;;8.78;100.00;100353.50;5047251;28;19958;-64
2023/01/13 00:02:31;;;;;;;;;;;;;;;8.87;100.00;100349.38;5047101;28;20007;-63
2023/01/13 00:04:56;;;;;;;;;;;;;;;8.83;100.00;100342.69;5047013;28;20526;-64
2023/01/13 00:07:22;;;;;;;;;;;;;;;8.81;100.00;100350.28;5045173;28;19925;-63
2023/01/13 00:09:47;;;;;;;;;;;;;;;8.79;100.00;100338.72;5042759;28;19986;-64
2023/01/13 00:12:12;;;;;;;;;;;;;;;8.74;100.00;100336.69;5047201;28;20359;-62
2023/01/13 00:14:37;;;;;;;;;;;;;;;8.64;100.00;100341.03;5046009;28;20012;-63
2023/01/13 00:17:03;;;;;;;;;;;;;;;8.50;100.00;100332.16;5043529;28;19925;-64
2023/01/13 00:19:28;;;;;;;;;;;;;;;8.57;100.00;100324.72;5047356;28;19921;-63
2023/01/13 00:21:53;;;;;;;;;;;;;;;8.46;100.00;100317.25;5045235;28;20302;-61
2023/01/13 00:24:18;;;;;;;;;;;;;;;8.48;100.00;100307.75;5042635;28;19921;-64
2023/01/13 00:26:43;;;;;;;;;;;;;;;8.34;100.00;100311.69;5046262;28;19916;-64
2023/01/13 00:29:09;;;;;;;;;;;;;;;8.33;100.00;100305.38;5045554;28;19923;-64
2023/01/13 00:31:34;;;;;;;;;;;;;;;8.23;100.00;100316.03;5047435;28;19928;-64
2023/01/13 00:33:59;;;;;;;;;;;;;;;8.21;100.00;100307.22;5046361;28;19923;-64
2023/01/13 00:36:25;;;;;;;;;;;;;;;8.39;100.00;100297.38;5047081;28;20003;-63
2023/01/13 00:38:50;;;;;;;;;;;;;;;8.19;100.00;100295.66;5046032;28;19921;-64
2023/01/13 00:41:20;;;;;;;;;;;;;;;8.14;100.00;100298.25;5046564;28;19920;-64
2023/01/13 00:43:45;;;;;;;;;;;;;;;8.07;100.00;100290.13;5045245;28;19917;-64
2023/01/13 00:46:11;;;;;;;;;;;;;;;8.02;100.00;100294.63;5046207;28;19983;-64
2023/01/13 00:48:37;;;;;;;;;;;;;;;8.19;100.00;100300.31;5046410;28;19928;-64
2023/01/13 00:51:23;;;;;;;;;;;;;;;8.03;100.00;100296.28;5047069;28;19924;-63
2023/01/13 00:53:49;;;;;;;;;;;;;;;8.15;100.00;100296.34;5042060;28;19927;-61
2023/01/13 00:56:21;;;;;;;;;;;;;;;8.14;100.00;100305.63;5046284;28;20015;-62
2023/01/13 00:58:47;;;;;;;;;;;;;;;8.10;100.00;100299.75;5045787;28;20372;-64
2023/01/13 01:01:13;;;;;;;;;;;;;;;8.05;100.00;100308.66;5045921;28;19924;-62
2023/01/13 01:03:39;;;;;;;;;;;;;;;7.93;100.00;100304.19;5028468;28;19913;-62
2023/01/13 01:06:06;;;;;;;;;;;;;;;7.96;100.00;100306.47;5043096;28;19921;-61
2023/01/13 01:08:31;;;;;;;;;;;;;;;8.12;100.00;100314.06;5043245;28;20331;-63
2023/01/13 01:11:03;;;;;;;;;;;;;;;7.88;100.00;100310.31;5032817;28;19929;-62
2023/01/13 01:13:28;;;;;;;;;;;;;;;7.84;100.00;100317.28;5045330;28;19933;-62
2023/01/13 01:15:53;;;;;;;;;;;;;;;7.90;100.00;100321.03;5045756;28;20009;-62
2023/01/13 01:18:18;;;;;;;;;;;;;;;7.87;100.00;100321.50;5046799;28;19916;-64
2023/01/13 01:20:44;;;;;;;;;;;;;;;7.92;100.00;100329.84;5047837;28;19978;-62
2023/01/13 01:23:09;;;;;;;;;;;;;;;7.96;100.00;100306.47;5049329;28;19921;-64
2023/01/13 01:25:34;;;;;;;;;;;;;;;8.18;100.00;100321.34;5049578;28;19921;-63
2023/01/13 01:27:59;;;;;;;;;;;;;;;8.05;100.00;100333.25;5050064;28;20315;-64
2023/01/13 01:30:24;;;;;;;;;;;;;;;8.14;100.00;100322.03;5049836;28;19943;-64
2023/01/13 01:32:50;;;;;;;;;;;;;;;8.04;100.00;100314.34;5050106;28;19923;-64
2023/01/13 01:35:15;;;;;;;;;;;;;;;8.25;100.00;100308.44;5049834;28;20399;-63
2023/01/13 01:37:40;;;;;;;;;;;;;;;8.14;100.00;100302.88;5049760;28;19921;-62
2023/01/13 01:40:05;;;;;;;;;;;;;;;8.12;100.00;100310.50;5050481;28;19925;-63
2023/01/13 01:45:19;;;;;;;;;;;;;;;7.93;100.00;100317.84;5049537;28;19927;-63
2023/01/13 01:47:46;;;;;;;;;;;;;;;7.99;100.00;100314.19;5049214;28;19939;-63
2023/01/13 01:50:11;;;;;;;;;;;;;;;7.98;100.00;100316.09;5050473;28;19928;-63
2023/01/13 01:52:39;;;;;;;;;;;;;;;7.85;100.00;100312.66;5048039;28;19917;-61
2023/01/13 01:55:08;;;;;;;;;;;;;;;7.78;100.00;100316.31;5048879;28;19921;-63
2023/01/13 01:57:50;;;;;;;;;;;;;;;7.81;100.00;100312.31;5050542;28;20475;-64
2023/01/13 02:00:15;;;;;;;;;;;;;;;7.85;100.00;100313.50;5049232;28;20062;-64
2023/01/13 02:02:42;;;;;;;;;;;;;;;7.85;100.00;100307.19;5049490;28;20023;-64
2023/01/13 02:05:08;;;;;;;;;;;;;;;7.70;100.00;100311.13;5049460;28;19920;-64
2023/01/13 02:07:35;;;;;;;;;;;;;;;7.83;100.00;100312.06;5044974;28;19927;-64
2023/01/13 02:10:04;;;;;;;;;;;;;;;7.75;100.00;100299.50;5042872;28;19995;-64
2023/01/13 02:12:30;;;;;;;;;;;;;;;7.68;100.00;100301.50;5098928;22;19931;-64
2023/01/13 02:14:58;;;;;;;;;;;;;;;7.65;100.00;100304.66;5067692;28;20320;-63
2023/01/13 02:17:43;;;;;;;;;;;;;;;7.61;100.00;100298.81;5068854;28;19971;-63
2023/01/13 02:20:09;;;;;;;;;;;;;;;7.59;100.00;100295.47;5068976;28;19942;-63
2023/01/13 02:22:45;;;;;;;;;;;;;;;7.67;100.00;100303.38;5066210;28;20297;-64
2023/01/13 02:25:11;;;;;;;;;;;;;;;7.52;100.00;100309.19;5066592;28;20008;-62
2023/01/13 02:27:45;;;;;;;;;;;;;;;7.71;100.00;100301.88;5069037;28;20024;-64
2023/01/13 02:33:05;;;;;;;;;;;;;;;7.52;100.00;100303.72;5068697;28;19948;-64
2023/01/13 02:35:49;;;;;;;;;;;;;;;7.63;100.00;100304.88;5069171;28;19935;-64
2023/01/13 02:38:16;;;;;;;;;;;;;;;7.56;100.00;100298.66;5067747;28;19939;-63
2023/01/13 02:40:44;;;;;;;;;;;;;;;7.47;100.00;100305.47;5067420;28;19921;-63
2023/01/13 02:45:59;;;;;;;;;;;;;;;7.49;100.00;100293.25;5067717;28;19985;-64
2023/01/13 02:48:26;;;;;;;;;;;;;;;7.45;100.00;100289.31;5069038;28;20326;-64
2023/01/13 02:51:13;;;;;;;;;;;;;;;7.58;100.00;100276.56;5068581;28;19916;-64
2023/01/13 02:53:52;;;;;;;;;;;;;;;7.51;100.00;100287.56;5062681;28;19928;-64
2023/01/13 02:56:19;;;;;;;;;;;;;;;7.51;100.00;100290.31;5068625;28;19978;-63
2023/01/13 02:58:45;;;;;;;;;;;;;;;7.52;100.00;100291.97;5064507;28;19932;-63
2023/01/13 03:01:11;;;;;;;;;;;;;;;7.53;100.00;100282.69;5066673;28;19921;-64
2023/01/13 03:03:36;;;;;;;;;;;;;;;7.56;100.00;100274.06;5068666;28;19916;-64
2023/01/13 03:06:13;;;;;;;;;;;;;;;7.54;100.00;100279.75;5067002;28;19921;-62
2023/01/13 03:08:49;;;;;;;;;;;;;;;7.56;100.00;100287.72;5067590;28;20427;-64
2023/01/13 03:11:18;;;;;;;;;;;;;;;7.74;100.00;100285.00;5068869;28;19920;-62
2023/01/13 03:14:02;;;;;;;;;;;;;;;7.63;100.00;100277.56;5067222;28;19948;-63
2023/01/13 03:16:30;;;;;;;;;;;;;;;7.62;100.00;100273.16;5062776;28;19958;-63
2023/01/13 03:19:13;;;;;;;;;;;;;;;7.66;100.00;100266.19;5065852;28;19920;-63
2023/01/13 03:21:52;;;;;;;;;;;;;;;7.68;100.00;100253.13;5065308;28;19975;-63
2023/01/13 03:24:34;;;;;;;;;;;;;;;7.77;100.00;100259.97;5067146;28;19920;-64
2023/01/13 03:27:04;;;;;;;;;;;;;;;7.92;99.98;100254.13;5067533;28;19921;-64
2023/01/13 03:29:33;;;;;;;;;;;;;;;7.79;99.81;100243.31;5064106;28;19928;-62
2023/01/13 03:32:05;;;;;;;;;;;;;;;7.82;99.68;100247.53;5067784;28;19966;-62
2023/01/13 03:34:38;;;;;;;;;;;;;;;7.98;98.62;100242.28;5067510;28;19999;-64
2023/01/13 03:37:05;;;;;;;;;;;;;;;8.01;98.16;100247.28;5068010;28;20287;-62
2023/01/13 03:39:33;;;;;;;;;;;;;;;8.10;96.83;100247.78;5067779;28;19942;-63
2023/01/13 03:42:03;;;;;;;;;;;;;;;8.21;94.84;100244.31;5067682;28;19917;-64
2023/01/13 03:44:34;;;;;;;;;;;;;;;8.10;95.09;100250.53;5066776;28;20495;-64
2023/01/13 03:47:08;;;;;;;;;;;;;;;8.14;95.12;100238.06;5066605;28;19994;-63
2023/01/13 03:49:37;;;;;;;;;;;;;;;8.07;93.82;100234.59;5067644;28;19959;-62
2023/01/13 03:52:05;;;;;;;;;;;;;;;8.12;93.23;100234.75;5067696;28;19916;-62
2023/01/13 03:54:31;;;;;;;;;;;;;;;8.24;91.67;100234.78;5064920;28;19966;-64
2023/01/13 03:57:00;;;;;;;;;;;;;;;8.27;90.05;100239.81;5066921;28;19920;-62
2023/01/13 03:59:28;;;;;;;;;;;;;;;8.37;88.64;100240.13;5062893;28;19920;-63
2023/01/13 04:02:05;;;;;;;;;;;;;;;8.33;87.63;100238.91;5067253;28;19925;-63
2023/01/13 04:04:40;;;;;;;;;;;;;;;8.15;89.49;100247.13;5065683;28;20378;-63
2023/01/13 04:07:14;;;;;;;;;;;;;;;8.32;87.39;100254.47;5066212;28;19920;-64
2023/01/13 04:09:48;;;;;;;;;;;;;;;8.35;87.56;100263.28;5066605;28;20293;-64
2023/01/13 04:12:59;;;;;;;;;;;;;;;8.06;87.58;100268.50;5065983;28;19966;-64
2023/01/13 04:15:20;;;;;;;;;;;;;;;7.95;90.88;100286.47;5051929;28;19931;-64
2023/01/13 04:17:45;;;;;;;;;;;;;;;7.85;91.54;100279.84;5047328;28;19929;-64
2023/01/13 04:20:11;;;;;;;;;;;;;;;7.89;91.03;100290.13;5055936;28;20006;-64
2023/01/13 04:22:36;;;;;;;;;;;;;;;7.84;91.85;100289.13;5066821;28;19921;-64
2023/01/13 04:25:01;;;;;;;;;;;;;;;7.93;90.67;100293.25;5066342;28;20003;-62
2023/01/13 04:27:26;;;;;;;;;;;;;;;7.85;90.71;100304.47;5066337;28;19925;-64
2023/01/13 04:29:52;;;;;;;;;;;;;;;7.72;92.14;100287.16;5063588;28;20347;-64
2023/01/13 04:32:17;;;;;;;;;;;;;;;7.70;92.42;100299.34;5064467;28;19924;-63
2023/01/13 04:34:42;;;;;;;;;;;;;;;7.71;92.54;100314.72;5065737;28;19999;-64
2023/01/13 04:37:07;;;;;;;;;;;;;;;7.96;91.35;100281.84;5065597;28;19981;-61
2023/01/13 04:39:32;;;;;;;;;;;;;;;7.85;92.78;100286.16;5067143;28;19913;-63
2023/01/13 04:41:58;;;;;;;;;;;;;;;7.86;92.89;100281.56;5052665;28;19956;-63
2023/01/13 04:44:23;;;;;;;;;;;;;;;8.08;92.64;100290.97;5062069;28;20543;-64
2023/01/13 04:46:48;;;;;;;;;;;;;;;7.75;94.39;100289.41;5065858;28;19916;-63
2023/01/13 04:49:13;;;;;;;;;;;;;;;7.82;94.18;100280.31;5065471;28;20386;-63
2023/01/13 04:51:39;;;;;;;;;;;;;;;7.70;95.57;100288.41;5064571;28;19928;-62
2023/01/13 04:54:04;;;;;;;;;;;;;;;7.58;96.61;100274.66;5066399;28;19969;-61
2023/01/13 04:56:29;;;;;;;;;;;;;;;7.57;96.76;100267.53;5067012;28;20359;-63
2023/01/13 04:58:54;;;;;;;;;;;;;;;7.69;96.68;100260.25;5065321;28;19977;-64
2023/01/13 05:01:20;;;;;;;;;;;;;;;7.48;97.89;100266.97;5066264;28;19920;-64
2023/01/13 05:03:45;;;;;;;;;;;;;;;7.39;97.98;100253.81;5065766;28;19924;-62
2023/01/13 05:06:10;;;;;;;;;;;;;;;7.23;99.33;100256.06;5066143;28;19921;-64
2023/01/13 05:08:35;;;;;;;;;;;;;;;7.26;98.93;100266.56;5066308;28;19924;-64
2023/01/13 05:16:58;;;;;;;;;;;;;;;7.24;99.64;100262.34;5061072;28;20003;-63
2023/01/13 05:19:18;;;;;;;;;;;;;;;7.02;100.00;100268.22;5066165;28;19962;-63
2023/01/13 05:27:11;;;;;;;;;;;;;;;7.13;100.00;100269.38;5065573;28;19971;-63
2023/01/13 05:29:36;;;;;;;;;;;;;;;7.12;100.00;100283.28;5065488;28;19921;-61
2023/01/13 05:32:03;;;;;;;;;;;;;;;6.94;100.00;100279.38;5064376;28;20421;-64
2023/01/13 05:34:28;;;;;;;;;;;;;;;7.16;100.00;100287.25;5066539;28;19924;-62
2023/01/13 05:36:53;;;;;;;;;;;;;;;7.33;100.00;100287.50;5059480;28;19920;-60
2023/01/13 05:39:18;;;;;;;;;;;;;;;7.13;100.00;100288.50;5046191;28;20065;-64
2023/01/13 05:44:28;;;;;;;;;;;;;;;7.32;100.00;100297.59;5065853;28;20382;-62
2023/01/13 05:46:53;;;;;;;;;;;;;;;7.23;100.00;100298.94;5065748;28;19916;-63
2023/01/13 05:49:18;;;;;;;;;;;;;;;7.07;100.00;100307.69;5065642;28;19916;-64
2023/01/13 05:51:43;;;;;;;;;;;;;;;7.06;100.00;100315.03;5065838;28;20461;-63
2023/01/13 05:54:08;;;;;;;;;;;;;;;6.99;100.00;100308.75;5065718;28;19917;-64
2023/01/13 05:56:33;;;;;;;;;;;;;;;7.08;100.00;100321.09;5065645;28;20795;-62
2023/01/13 05:58:59;;;;;;;;;;;;;;;7.32;100.00;100318.63;5065242;28;20257;-64
2023/01/13 06:01:24;;;;;;;;;;;;;;;7.13;100.00;100320.44;5062401;28;19920;-63
2023/01/13 06:03:49;;;;;;;;;;;;;;;7.10;100.00;100332.66;5050794;28;19952;-63
2023/01/13 06:06:14;;;;;;;;;;;;;;;7.33;99.91;100323.03;5061546;28;19924;-65
2023/01/13 06:08:39;;;;;;;;;;;;;;;7.25;100.00;100313.22;5052617;28;19920;-63
2023/01/13 06:11:05;;;;;;;;;;;;;;;7.06;100.00;100319.66;5049703;28;20398;-65
2023/01/13 06:13:30;;;;;;;;;;;;;;;6.94;100.00;100333.16;5065936;28;19925;-62
2023/01/13 06:15:56;;;;;;;;;;;;;;;7.06;100.00;100325.97;5063143;28;19928;-63
2023/01/13 06:18:21;;;;;;;;;;;;;;;6.97;100.00;100321.81;5069609;28;20015;-64
2023/01/13 06:20:46;;;;;;;;;;;;;;;7.21;99.52;100325.66;5067778;28;20023;-64
2023/01/13 06:23:12;;;;;;;;;;;;;;;7.02;100.00;100335.63;5064431;28;20018;-64
2023/01/13 06:25:46;;;;;;;;;;;;;;;6.98;99.92;100334.41;5069482;28;19916;-62
2023/01/13 06:28:11;;;;;;;;;;;;;;;6.83;100.00;100326.50;5068968;28;20505;-65
2023/01/13 06:30:42;;;;;;;;;;;;;;;6.96;100.00;100325.59;5069827;28;20015;-64
2023/01/13 06:33:09;;;;;;;;;;;;;;;6.89;100.00;100322.91;5068793;28;19971;-62
2023/01/13 06:35:36;;;;;;;;;;;;;;;6.87;99.86;100325.03;5069878;28;19929;-65
2023/01/13 06:38:02;;;;;;;;;;;;;;;6.99;99.30;100327.88;5068262;28;19952;-65
2023/01/13 06:40:28;;;;;;;;;;;;;;;6.94;99.65;100338.63;5069920;28;19946;-65
2023/01/13 06:45:38;;;;;;;;;;;;;;;7.00;99.02;100351.41;5069076;28;20429;-64
2023/01/13 06:48:03;;;;;;;;;;;;;;;6.96;99.11;100336.53;5069453;28;19920;-65
2023/01/13 06:50:29;;;;;;;;;;;;;;;7.05;99.16;100334.38;5069412;28;19970;-65
2023/01/13 06:52:54;;;;;;;;;;;;;;;7.15;97.95;100326.53;5067195;28;19920;-63
2023/01/13 06:55:19;;;;;;;;;;;;;;;7.03;98.48;100334.56;5069859;28;19924;-64
2023/01/13 06:57:52;;;;;;;;;;;;;;;6.97;99.12;100325.38;5065252;28;19925;-62
2023/01/13 07:00:17;;;;;;;;;;;;;;;6.96;99.05;100326.44;5067010;28;19955;-65
2023/01/13 07:02:42;;;;;;;;;;;;;;;6.91;98.33;100336.34;5064157;28;20437;-64
2023/01/13 07:05:08;;;;;;;;;;;;;;;7.07;97.35;100338.53;5049341;28;20426;-65
2023/01/13 07:07:33;;;;;;;;;;;;;;;7.39;95.62;100336.63;5066165;28;20007;-64
2023/01/13 07:09:59;;;;;;;;;;;;;;;7.04;97.12;100338.97;5064407;28;19931;-65
2023/01/13 07:12:24;;;;;;;;;;;;;;;7.02;97.34;100341.09;5068048;28;19975;-63
2023/01/13 07:17:33;;;;;;;;;;;;;;;7.09;96.48;100341.88;5067490;28;19936;-64
2023/01/13 07:19:58;;;;;;;;;;;;;;;7.11;96.47;100349.88;5067204;28;20513;-65
2023/01/13 07:22:23;;;;;;;;;;;;;;;7.06;95.82;100347.81;5060484;28;20422;-62
2023/01/13 07:24:49;;;;;;;;;;;;;;;6.96;97.05;100345.53;5059691;28;19927;-64
2023/01/13 07:27:14;;;;;;;;;;;;;;;7.06;95.70;100350.53;5068541;28;19917;-65
2023/01/13 07:29:39;;;;;;;;;;;;;;;7.04;95.99;100347.16;5066665;28;20424;-64
2023/01/13 07:32:05;;;;;;;;;;;;;;;7.19;95.00;100355.06;5068493;28;20332;-62
2023/01/13 07:34:30;;;;;;;;;;;;;;;7.00;95.88;100354.16;5068797;28;19923;-65
2023/01/13 07:36:56;;;;;;;;;;;;;;;7.03;95.45;100356.41;5068607;28;19913;-64
2023/01/13 07:39:21;;;;;;;;;;;;;;;7.12;94.79;100355.09;5068417;28;19948;-65
2023/01/13 07:44:30;;;;;;;;;;;;;;;6.96;95.63;100352.91;5064695;28;19928;-65
2023/01/13 07:46:55;;;;;;;;;;;;;;;7.06;94.98;100358.72;5068351;28;19916;-65
2023/01/13 07:49:20;;;;;;;;;;;;;;;7.00;94.89;100359.59;5068189;28;20320;-65
2023/01/13 07:51:45;;;;;;;;;;;;;;;7.16;93.05;100363.72;5068096;28;19958;-64
2023/01/13 07:54:11;;;;;;;;;;;;;;;7.37;91.90;100362.50;5066289;28;19924;-65
2023/01/13 07:56:36;;;;;;;;;;;;;;;7.18;93.38;100361.56;5068134;28;20359;-66
2023/01/13 07:59:01;;;;;;;;;;;;;;;7.21;93.30;100366.63;5066879;28;19917;-66
2023/01/13 08:01:27;;;;;;;;;;;;;;;7.26;91.98;100362.16;5066515;28;19928;-66
2023/01/13 08:03:53;;;;;;;;;;;;;;;7.20;93.01;100371.25;5050406;28;19929;-63
2023/01/13 08:06:18;;;;;;;;;;;;;;;7.21;92.75;100364.72;5065628;28;19928;-66
2023/01/13 08:08:43;;;;;;;;;;;;;;;7.48;91.27;100373.53;5067664;28;19916;-62
2023/01/13 08:11:09;;;;;;;;;;;;;;;7.33;92.20;100374.94;5068442;28;19913;-64
2023/01/13 08:13:34;;;;;;;;;;;;;;;7.27;92.41;100369.28;5067294;28;20375;-65
2023/01/13 08:16:01;;;;;;;;;;;;;;;7.42;91.92;100382.63;5060624;28;19955;-62
2023/01/13 08:18:26;;;;;;;;;;;;;;;7.53;90.92;100381.06;5047886;28;20662;-64
2023/01/13 08:20:51;;;;;;;;;;;;;;;7.59;91.14;100380.19;5046222;28;20004;-65
2023/01/13 08:23:21;;;;;;;;;;;;;;;7.77;90.02;100390.34;5045630;28;19940;-65
2023/01/13 08:25:46;;;;;;;;;;;;;;;7.69;90.18;100388.72;5047384;28;19944;-63
2023/01/13 08:28:11;;;;;;;;;;;;;;;7.75;90.05;100385.09;5046444;28;19959;-62
2023/01/13 08:30:37;;;;;;;;;;;;;;;7.85;89.48;100394.69;5047767;28;19916;-64
2023/01/13 08:33:05;;;;;;;;;;;;;;;7.85;90.00;100400.16;5047794;28;19917;-65
2023/01/13 08:35:30;;;;;;;;;;;;;;;7.95;89.55;100405.94;5047497;28;19917;-64
2023/01/13 08:37:55;;;;;;;;;;;;;;;8.01;89.58;100399.59;5046657;28;19924;-65
2023/01/13 08:40:21;;;;;;;;;;;;;;;8.25;88.80;100397.88;5047592;28;20007;-65
2023/01/13 08:42:46;;;;;;;;;;;;;;;8.55;87.56;100398.81;5046363;28;19924;-64
2023/01/13 08:45:12;;;;;;;;;;;;;;;8.69;86.43;100398.69;5047349;28;20015;-65
2023/01/13 08:47:37;;;;;;;;;;;;;;;8.66;86.36;100402.69;5047315;28;19924;-62
2023/01/13 08:50:03;;;;;;;;;;;;;;;8.58;87.52;100405.75;5052923;28;19920;-64
2023/01/13 08:52:29;;;;;;;;;;;;;;;8.73;86.96;100395.25;5066599;28;19962;-63
2023/01/13 08:54:54;;;;;;;;;;;;;;;8.84;86.10;100405.44;5061939;28;20157;-65
2023/01/13 08:57:19;;;;;;;;;;;;;;;8.91;85.06;100412.72;5058109;28;19929;-63
2023/01/13 08:59:45;;;;;;;;;;;;;;;8.74;86.22;100413.34;5045209;28;19974;-64
2023/01/13 09:02:14;;;;;;;;;;;;;;;8.69;86.69;100421.41;5050321;28;20402;-64
2023/01/13 09:04:39;;;;;;;;;;;;;;;8.70;85.78;100425.81;5049954;28;19927;-63
2023/01/13 09:07:04;;;;;;;;;;;;;;;8.73;86.30;100419.06;5053834;28;20279;-65
2023/01/13 09:09:30;;;;;;;;;;;;;;;8.94;85.92;100421.31;5056559;28;19921;-65
2023/01/13 09:14:39;;;;;;;;;;;;;;;8.95;85.40;100430.38;5059196;28;19935;-62
2023/01/13 09:17:06;;;;;;;;;;;;;;;8.96;85.19;100426.56;5055345;28;19917;-65
2023/01/13 09:19:31;;;;;;;;;;;;;;;8.84;86.17;100421.84;5060182;28;19916;-63
2023/01/13 09:21:56;;;;;;;;;;;;;;;8.77;87.06;100401.13;5062136;28;19920;-65
2023/01/13 09:24:22;;;;;;;;;;;;;;;8.61;87.65;100427.19;5047864;28;20013;-62
2023/01/13 09:26:47;;;;;;;;;;;;;;;8.69;86.65;100429.63;5045735;28;20361;-62
2023/01/13 09:29:13;;;;;;;;;;;;;;;8.74;86.25;100431.69;5048390;28;19928;-65
2023/01/13 09:31:38;;;;;;;;;;;;;;;8.67;87.64;100425.44;5051602;28;19936;-64
2023/01/13 09:36:56;;;;;;;;;;;;;;;8.46;89.15;100434.94;5045919;28;20394;-63
2023/01/13 09:39:21;;;;;;;;;;;;;;;8.51;88.90;100437.81;5054176;28;19928;-65
2023/01/13 09:44:53;;;;;;;;;;;;;;;8.52;87.63;100458.69;5049663;28;19927;-65
2023/01/13 09:47:29;;;;;;;;;;;;;;;8.29;89.01;100453.81;5057525;28;19921;-64
2023/01/13 09:50:02;;;;;;;;;;;;;;;8.39;88.70;100467.03;5069439;28;20469;-65
2023/01/13 09:52:27;;;;;;;;;;;;;;;8.50;88.22;100466.25;5064242;28;20015;-63
2023/01/13 09:54:58;;;;;;;;;;;;;;;8.35;89.44;100477.53;5065914;28;20015;-65
2023/01/13 09:57:26;;;;;;;;;;;;;;;8.33;90.00;100485.97;5065549;28;20533;-65
2023/01/13 09:59:51;;;;;;;;;;;;;;;8.42;89.25;100485.72;5059773;28;19927;-63
2023/01/13 10:02:19;;;;;;;;;;;;;;;8.33;90.63;100487.88;5061351;28;19920;-65
2023/01/13 10:05:00;;;;;;;;;;;;;;;8.30;90.96;100486.41;5053576;28;20028;-64
2023/01/13 10:07:28;;;;;;;;;;;;;;;8.28;91.34;100495.94;5053436;28;19939;-65
2023/01/13 10:09:55;;;;;;;;;;;;;;;8.24;90.85;100487.31;5064997;28;20339;-64
2023/01/13 10:15:16;;;;;;;;;;;;;;;8.36;91.51;100495.66;5049136;28;19935;-64
2023/01/13 10:17:52;;;;;;;;;;;;;;;8.22;93.01;100500.41;5053472;28;19929;-65
2023/01/13 10:20:17;;;;;;;;;;;;;;;7.97;94.41;100499.56;5053445;28;19921;-64
2023/01/13 10:23:01;;;;;;;;;;;;;;;8.23;92.92;100496.59;5053720;28;19921;-64
2023/01/13 10:25:27;;;;;;;;;;;;;;;7.94;94.58;100503.56;5057480;28;19920;-61
2023/01/13 10:27:53;;;;;;;;;;;;;;;7.84;95.48;100505.09;5057461;28;19985;-64
2023/01/13 10:30:20;;;;;;;;;;;;;;;7.74;96.41;100514.63;5049296;28;20287;-64
2023/01/13 10:32:54;;;;;;;;;;;;;;;7.61;98.79;100525.66;5053593;28;20337;-64
2023/01/13 10:35:38;;;;;;;;;;;;;;;7.71;97.92;100517.00;5050952;28;19929;-63
2023/01/13 10:38:03;;;;;;;;;;;;;;;7.85;96.90;100536.84;5054068;28;19934;-62
2023/01/13 10:40:28;;;;;;;;;;;;;;;7.65;98.94;100524.13;5063923;28;20014;-64
2023/01/13 10:43:04;;;;;;;;;;;;;;;7.57;99.49;100538.09;5058810;28;19962;-61
2023/01/13 10:45:29;;;;;;;;;;;;;;;7.69;99.26;100538.22;5055401;28;19921;-64
2023/01/13 10:48:04;;;;;;;;;;;;;;;7.79;98.99;100533.09;5061585;28;19943;-64
2023/01/13 10:50:29;;;;;;;;;;;;;;;7.56;100.00;100528.22;5058453;28;19924;-62
2023/01/13 10:52:59;;;;;;;;;;;;;;;7.63;99.47;100537.19;5051074;28;19928;-62
2023/01/13 10:55:29;;;;;;;;;;;;;;;7.80;98.93;100535.59;5051909;28;19921;-62
2023/01/13 10:57:54;;;;;;;;;;;;;;;7.89;98.45;100533.47;5050115;28;19928;-64
2023/01/13 11:00:31;;;;;;;;;;;;;;;7.95;98.45;100532.56;5050730;28;19924;-64
2023/01/13 11:03:15;;;;;;;;;;;;;;;7.92;98.19;100537.66;5057021;28;19973;-63
2023/01/13 11:05:46;;;;;;;;;;;;;;;7.94;98.45;100550.03;5046229;28;19970;-63
2023/01/13 11:08:19;;;;;;;;;;;;;;;8.17;97.79;100532.22;5050013;28;19943;-63
2023/01/13 11:10:46;;;;;;;;;;;;;;;7.90;98.58;100540.59;5055542;28;19921;-62
2023/01/13 11:13:15;;;;;;;;;;;;;;;7.88;98.26;100544.63;5056554;28;19925;-63
2023/01/13 11:15:54;;;;;;;;;;;;;;;8.00;97.45;100537.38;5052869;28;20006;-64
2023/01/13 11:18:25;;;;;;;;;;;;;;;7.97;98.39;100548.78;5048727;28;20306;-63
2023/01/13 11:20:51;;;;;;;;;;;;;;;7.83;98.98;100556.22;5055662;28;19946;-61
2023/01/13 11:23:28;;;;;;;;;;;;;;;7.94;99.14;100549.22;5054873;28;20020;-64
2023/01/13 11:25:58;;;;;;;;;;;;;;;8.20;97.88;100538.06;5056764;28;19921;-64
2023/01/13 11:28:43;;;;;;;;;;;;;;;8.44;95.39;100549.28;5067392;28;20351;-64
2023/01/13 11:31:12;;;;;;;;;;;;;;;8.24;96.60;100547.50;5063105;28;19921;-63
2023/01/13 11:33:43;;;;;;;;;;;;;;;8.09;97.15;100541.53;5067466;28;19924;-63
2023/01/13 11:36:35;;;;;;;;;;;;;;;8.23;96.39;100540.38;5066928;28;20014;-64
2023/01/13 11:39:18;;;;;;;;;;;;;;;8.20;95.40;100540.81;5065171;28;19920;-62
2023/01/13 11:42:19;;;;;;;;;;;;;;;8.34;95.45;100536.06;5057337;28;20283;-64
2023/01/13 11:44:44;;;;;;;;;;;;;;;8.58;94.06;100548.09;5066984;28;20019;-64
2023/01/13 11:47:10;;;;;;;;;;;;;;;8.62;93.72;100549.31;5067543;28;20100;-64
2023/01/13 11:49:37;;;;;;;;;;;;;;;8.76;91.92;100556.31;5067265;28;19927;-63
2023/01/13 11:52:27;;;;;;;;;;;;;;;8.49;93.39;100560.38;5068034;28;20507;-63
2023/01/13 11:55:10;;;;;;;;;;;;;;;8.58;93.02;100570.00;5047580;28;19929;-64
2023/01/13 11:57:53;;;;;;;;;;;;;;;8.65;92.19;100576.22;5054856;28;20022;-64
2023/01/13 12:00:21;;;;;;;;;;;;;;;8.55;92.05;100574.00;5067109;28;19943;-64
2023/01/13 12:03:05;;;;;;;;;;;;;;;8.53;93.19;100572.56;5067266;28;20000;-64
2023/01/13 12:05:36;;;;;;;;;;;;;;;8.40;92.54;100578.16;5064854;28;20361;-64
2023/01/13 12:08:09;;;;;;;;;;;;;;;8.52;91.84;100568.16;5067174;28;19963;-65
2023/01/13 12:10:53;;;;;;;;;;;;;;;8.28;93.09;100598.00;5067142;28;19932;-63
2023/01/13 12:13:28;;;;;;;;;;;;;;;8.27;92.93;100592.75;5062674;28;20390;-63
2023/01/13 12:16:05;;;;;;;;;;;;;;;8.32;93.44;100598.41;5066984;28;20386;-64
2023/01/13 12:18:30;;;;;;;;;;;;;;;8.24;92.91;100602.22;5067387;28;19923;-63
2023/01/13 12:21:14;;;;;;;;;;;;;;;8.17;93.86;100603.34;5067540;28;19917;-64
2023/01/13 12:23:50;;;;;;;;;;;;;;;8.09;94.32;100598.13;5066898;28;19920;-64
2023/01/13 12:26:16;;;;;;;;;;;;;;;8.31;93.79;100603.03;5067715;28;19912;-63
2023/01/13 12:28:45;;;;;;;;;;;;;;;8.08;93.98;100610.97;5050821;28;19927;-64
2023/01/13 12:31:11;;;;;;;;;;;;;;;8.15;94.00;100610.91;5066554;28;20007;-64
2023/01/13 12:33:55;;;;;;;;;;;;;;;8.19;94.21;100615.72;5065081;28;19925;-65
2023/01/13 12:36:20;;;;;;;;;;;;;;;8.42;94.03;100603.41;5067375;28;19920;-65
2023/01/13 12:38:47;;;;;;;;;;;;;;;8.25;93.47;100608.53;5067114;28;19916;-65
2023/01/13 12:41:31;;;;;;;;;;;;;;;8.32;92.53;100614.81;5068193;28;19917;-64
2023/01/13 12:46:43;;;;;;;;;;;;;;;8.31;91.93;100619.44;5067605;28;19924;-63
2023/01/13 12:49:17;;;;;;;;;;;;;;;8.31;92.47;100622.19;5049334;28;19925;-62
2023/01/13 12:52:06;;;;;;;;;;;;;;;8.39;92.08;100633.94;5047532;28;19917;-64
2023/01/13 12:54:40;;;;;;;;;;;;;;;8.40;92.11;100633.72;5046469;28;19917;-64
2023/01/13 12:57:17;;;;;;;;;;;;;;;8.36;91.74;100634.34;5047045;28;20015;-64
2023/01/13 12:59:47;;;;;;;;;;;;;;;8.46;91.58;100638.28;5062791;28;20562;-65
2023/01/13 13:02:14;;;;;;;;;;;;;;;8.50;90.79;100639.53;5064279;28;20294;-62
2023/01/13 13:04:44;;;;;;;;;;;;;;;8.38;91.51;100662.38;5060626;28;19921;-65
2023/01/13 13:07:13;;;;;;;;;;;;;;;8.38;91.19;100646.78;5065996;28;19916;-65
2023/01/13 13:09:42;;;;;;;;;;;;;;;8.37;92.13;100653.31;5065045;28;19920;-65
2023/01/13 13:15:22;;;;;;;;;;;;;;;8.70;89.36;100641.28;5067515;28;20015;-65
2023/01/13 13:18:19;;;;;;;;;;;;;;;8.35;91.63;100660.03;5070660;28;20261;-64
2023/01/13 13:20:55;;;;;;;;;;;;;;;8.39;91.10;100670.34;5064970;28;19947;-66
2023/01/13 13:23:27;;;;;;;;;;;;;;;8.42;91.19;100686.34;5070409;28;20332;-65
2023/01/13 13:26:05;;;;;;;;;;;;;;;8.37;90.95;100685.34;5070034;28;19916;-65
2023/01/13 13:28:36;;;;;;;;;;;;;;;8.25;91.60;100679.66;5069790;28;19920;-65
2023/01/13 13:31:14;;;;;;;;;;;;;;;8.29;91.64;100687.22;5070450;28;20318;-65
2023/01/13 13:33:48;;;;;;;;;;;;;;;8.29;92.02;100689.94;5070457;28;19920;-65
2023/01/13 13:36:13;;;;;;;;;;;;;;;8.35;92.31;100687.41;5071037;28;19917;-65
2023/01/13 13:47:16;;;;;;;;;;;;;;;8.43;89.50;100709.91;5057562;28;20702;-63